Time,TemperatureF,DewpointF,PressureIn,WindDirection,WindDirectionDegrees,WindSpeedMPH,WindSpeedGustMPH,Humidity,HourlyPrecipIn,Conditions,Clouds,dailyrainin,SolarRadiationWatts/m^2,SoftwareType,DateUTC
2013-03-02 00:00:00,51.3,49.1,30.30,SSE,152,2.0,3.0,92,0.00,,---,0.00,0.00,VWS V14.01,2013-03-02 08:00:00,
2013-03-02 00:05:00,51.4,49.2,30.30,SSE,155,3.0,3.0,92,0.00,,---,0.00,0.00,VWS V14.01,2013-03-02 08:05:00,
2013-03-02 00:10:00,51.5,49.3,30.30,SSE,150,1.0,4.0,92,0.00,,---,0.00,0.00,VWS V14.01,2013-03-02 08:10:00,
2013-03-02 00:15:00,51.8,49.5,30.29,SSE,150,2.0,5.0,92,0.00,,---,0.00,0.00,VWS V14.01,2013-03-02 08:15:00,
2013-03-02 00:20:00,52.0,49.5,30.29,SSE,148,0.0,2.0,91,0.00,,---,0.00,0.00,VWS V14.01,2013-03-02 08:20:00,
2013-03-02 00:25:00,52.1,49.6,30.30,SSE,147,2.0,4.0,91,0.00,,---,0.00,0.00,VWS V14.01,2013-03-02 08:25:00,
2013-03-02 00:30:00,52.2,49.4,30.29,SSE,156,0.0,1.0,90,0.00,,---,0.00,0.00,VWS V14.01,2013-03-02 08:30:00,
2013-03-02 00:35:00,52.2,49.4,30.29,SSE,156,0.0,0.0,90,0.00,,---,0.00,0.00,VWS V14.01,2013-03-02 08:35:00,
2013-03-02 00:40:00,52.2,49.4,30.30,SSE,157,0.0,0.0,90,0.00,,---,0.00,0.00,VWS V14.01,2013-03-02 08:40:00,
2013-03-02 00:45:00,52.1,49.3,30.29,SSE,156,0.0,0.0,90,0.00,,---,0.00,0.00,VWS V14.01,2013-03-02 08:45:00,
2013-03-02 00:50:00,52.1,49.0,30.29,SSE,151,3.0,3.0,89,0.00,,---,0.00,0.00,VWS V14.01,2013-03-02 08:50:00,
2013-03-02 00:55:00,52.1,49.0,30.29,SSE,151,0.0,0.0,89,0.00,,---,0.00,0.00,VWS V14.01,2013-03-02 08:55:00,
2013-03-02 01:00:00,52.1,49.0,30.29,ESE,113,0.0,1.0,89,0.00,,---,0.00,0.00,VWS V14.01,2013-03-02 09:00:00,
2013-03-02 01:05:00,52.1,49.0,30.29,ESE,113,0.0,0.0,89,0.00,,---,0.00,0.00,VWS V14.01,2013-03-02 09:05:00,
2013-03-02 01:10:00,52.0,48.9,30.29,ESE,113,0.0,0.0,89,0.00,,---,0.00,0.00,VWS V14.01,2013-03-02 09:10:00,
2013-03-02 01:15:00,52.0,48.9,30.29,ESE,122,0.0,1.0,89,0.00,,---,0.00,0.00,VWS V14.01,2013-03-02 09:15:00,
2013-03-02 01:20:00,52.0,48.6,30.29,ESE,122,0.0,0.0,88,0.00,,---,0.00,0.00,VWS V14.01,2013-03-02 09:20:00,
2013-03-02 01:25:00,52.1,48.7,30.29,ESE,122,0.0,0.0,88,0.00,,---,0.00,0.00,VWS V14.01,2013-03-02 09:25:00,
2013-03-02 01:30:00,52.1,48.7,30.29,ESE,122,0.0,0.0,88,0.00,,---,0.00,0.00,VWS V14.01,2013-03-02 09:30:00,
2013-03-02 01:35:00,52.0,48.6,30.29,ESE,121,0.0,0.0,88,0.00,,---,0.00,0.00,VWS V14.01,2013-03-02 09:35:00,
2013-03-02 01:40:00,52.0,48.9,30.29,ESE,121,0.0,1.0,89,0.00,,---,0.00,0.00,VWS V14.01,2013-03-02 09:40:00,
2013-03-02 01:45:00,52.0,48.9,30.29,ESE,121,0.0,0.0,89,0.00,,---,0.00,0.00,VWS V14.01,2013-03-02 09:45:00,
2013-03-02 01:50:00,51.9,48.8,30.29,ESE,121,0.0,1.0,89,0.00,,---,0.00,0.00,VWS V14.01,2013-03-02 09:50:00,
2013-03-02 01:55:00,51.8,48.7,30.29,ESE,122,0.0,0.0,89,0.00,,---,0.00,0.00,VWS V14.01,2013-03-02 09:55:00,
2013-03-02 02:00:00,51.8,48.7,30.29,ESE,121,0.0,0.0,89,0.00,,---,0.00,0.00,VWS V14.01,2013-03-02 10:00:00,
2013-03-02 02:05:00,51.7,48.6,30.29,ESE,121,0.0,0.0,89,0.00,,---,0.00,0.00,VWS V14.01,2013-03-02 10:05:00,
2013-03-02 02:10:00,51.7,48.6,30.28,ESE,123,0.0,2.0,89,0.00,,---,0.00,0.00,VWS V14.01,2013-03-02 10:10:00,
2013-03-02 02:15:00,51.6,48.5,30.28,ESE,123,0.0,0.0,89,0.00,,---,0.00,0.00,VWS V14.01,2013-03-02 10:15:00,
2013-03-02 02:20:00,51.6,48.5,30.28,ESE,123,0.0,0.0,89,0.00,,---,0.00,0.00,VWS V14.01,2013-03-02 10:20:00,
2013-03-02 02:25:00,51.5,48.4,30.27,ESE,123,1.0,1.0,89,0.00,,---,0.00,0.00,VWS V14.01,2013-03-02 10:25:00,
2013-03-02 02:30:00,51.5,48.4,30.27,East,86,0.0,1.0,89,0.00,,---,0.00,0.00,VWS V14.01,2013-03-02 10:30:00,
2013-03-02 02:35:00,51.5,48.4,30.27,East,86,0.0,0.0,89,0.00,,---,0.00,0.00,VWS V14.01,2013-03-02 10:35:00,
2013-03-02 02:40:00,51.4,48.0,30.27,East,86,0.0,1.0,88,0.00,,---,0.00,0.00,VWS V14.01,2013-03-02 10:40:00,
2013-03-02 02:45:00,51.5,48.1,30.27,East,86,0.0,0.0,88,0.00,,---,0.00,0.00,VWS V14.01,2013-03-02 10:45:00,
2013-03-02 02:50:00,51.5,48.1,30.27,East,86,0.0,2.0,88,0.00,,---,0.00,0.00,VWS V14.01,2013-03-02 10:50:00,
2013-03-02 02:55:00,51.4,48.0,30.27,East,86,0.0,1.0,88,0.00,,---,0.00,0.00,VWS V14.01,2013-03-02 10:55:00,
2013-03-02 03:00:00,51.4,48.0,30.26,East,86,0.0,1.0,88,0.00,,---,0.00,0.00,VWS V14.01,2013-03-02 11:00:00,
2013-03-02 03:05:00,51.3,47.9,30.26,East,86,0.0,1.0,88,0.00,,---,0.00,0.00,VWS V14.01,2013-03-02 11:05:00,
2013-03-02 03:10:00,51.3,47.9,30.25,East,86,0.0,2.0,88,0.00,,---,0.00,0.00,VWS V14.01,2013-03-02 11:10:00,
2013-03-02 03:15:00,51.2,47.8,30.25,East,86,0.0,0.0,88,0.00,,---,0.00,0.00,VWS V14.01,2013-03-02 11:15:00,
2013-03-02 03:20:00,51.2,47.8,30.25,SE,132,0.0,2.0,88,0.00,,---,0.00,0.00,VWS V14.01,2013-03-02 11:20:00,
2013-03-02 03:25:00,51.1,47.7,30.25,SE,131,0.0,2.0,88,0.00,,---,0.00,0.00,VWS V14.01,2013-03-02 11:25:00,
2013-03-02 03:30:00,51.1,47.7,30.25,SSE,150,0.0,1.0,88,0.00,,---,0.00,0.00,VWS V14.01,2013-03-02 11:30:00,
2013-03-02 03:35:00,51.2,47.5,30.24,SSE,163,0.0,2.0,87,0.00,,---,0.00,0.00,VWS V14.01,2013-03-02 11:35:00,
2013-03-02 03:40:00,51.3,47.3,30.24,South,174,3.0,6.0,86,0.00,,---,0.00,0.00,VWS V14.01,2013-03-02 11:40:00,
2013-03-02 03:45:00,51.7,47.3,30.23,South,188,4.0,7.0,85,0.00,,---,0.00,0.00,VWS V14.01,2013-03-02 11:45:00,
2013-03-02 03:50:00,51.9,47.2,30.24,South,177,4.0,6.0,84,0.00,,---,0.00,0.00,VWS V14.01,2013-03-02 11:50:00,
2013-03-02 03:55:00,52.1,47.1,30.23,SSW,192,4.0,8.0,83,0.00,,---,0.00,0.00,VWS V14.01,2013-03-02 11:55:00,
2013-03-02 04:00:00,52.3,47.3,30.23,SSW,200,5.0,6.0,83,0.00,,---,0.00,0.00,VWS V14.01,2013-03-02 12:00:00,
2013-03-02 04:05:00,52.3,47.3,30.23,South,184,3.0,7.0,83,0.00,,---,0.00,0.00,VWS V14.01,2013-03-02 12:05:00,
2013-03-02 04:10:00,52.2,47.2,30.23,SSW,199,4.0,8.0,83,0.00,,---,0.00,0.00,VWS V14.01,2013-03-02 12:10:00,
2013-03-02 04:15:00,52.2,46.9,30.23,South,190,4.0,8.0,82,0.00,,---,0.00,0.00,VWS V14.01,2013-03-02 12:15:00,
2013-03-02 04:20:00,52.3,47.0,30.23,SSW,199,6.0,9.0,82,0.00,,---,0.00,0.00,VWS V14.01,2013-03-02 12:20:00,
2013-03-02 04:25:00,52.2,46.9,30.23,SSW,197,4.0,5.0,82,0.00,,---,0.00,0.00,VWS V14.01,2013-03-02 12:25:00,
2013-03-02 04:30:00,52.2,46.9,30.23,South,181,6.0,6.0,82,0.00,,---,0.00,0.00,VWS V14.01,2013-03-02 12:30:00,
2013-03-02 04:35:00,52.2,46.9,30.23,South,172,3.0,5.0,82,0.00,,---,0.00,0.00,VWS V14.01,2013-03-02 12:35:00,
2013-03-02 04:40:00,52.2,46.9,30.23,SSE,167,1.0,5.0,82,0.00,,---,0.00,0.00,VWS V14.01,2013-03-02 12:40:00,
2013-03-02 04:45:00,52.1,46.8,30.23,South,190,3.0,4.0,82,0.00,,---,0.00,0.00,VWS V14.01,2013-03-02 12:45:00,
2013-03-02 04:50:00,52.1,46.5,30.22,South,182,3.0,5.0,81,0.00,,---,0.00,0.00,VWS V14.01,2013-03-02 12:50:00,
2013-03-02 04:55:00,52.1,46.5,30.22,SSE,162,2.0,5.0,81,0.00,,---,0.00,0.00,VWS V14.01,2013-03-02 12:55:00,
2013-03-02 05:00:00,52.1,46.5,30.22,South,184,4.0,5.0,81,0.00,,---,0.00,0.00,VWS V14.01,2013-03-02 13:00:00,
2013-03-02 05:05:00,52.1,46.5,30.22,SSE,158,1.0,6.0,81,0.00,,---,0.00,0.00,VWS V14.01,2013-03-02 13:05:00,
2013-03-02 05:10:00,52.1,46.5,30.22,SE,145,2.0,6.0,81,0.00,,---,0.00,0.00,VWS V14.01,2013-03-02 13:10:00,
2013-03-02 05:15:00,52.2,46.5,30.22,South,170,1.0,4.0,81,0.00,,---,0.00,0.00,VWS V14.01,2013-03-02 13:15:00,
2013-03-02 05:20:00,51.5,45.9,30.21,SSE,168,6.0,7.0,81,0.00,,---,0.00,0.00,VWS V14.01,2013-03-02 13:20:00,
2013-03-02 05:21:00,52.2,46.5,30.22,SSW,206,2.0,5.0,81,0.00,,---,0.00,0.00,VWS V14.01,2013-03-02 13:21:00,
2013-03-02 05:25:00,51.5,45.9,30.21,South,184,4.0,6.0,81,0.00,,---,0.00,0.00,VWS V14.01,2013-03-02 13:25:00,
2013-03-02 05:26:00,52.1,46.5,30.22,South,183,2.0,5.0,81,0.00,,---,0.00,0.00,VWS V14.01,2013-03-02 13:26:00,
2013-03-02 05:30:00,51.4,45.8,30.21,South,190,1.0,4.0,81,0.00,,---,0.00,0.00,VWS V14.01,2013-03-02 13:30:00,
2013-03-02 05:31:00,52.1,46.5,30.21,SSE,159,2.0,5.0,81,0.00,,---,0.00,0.00,VWS V14.01,2013-03-02 13:31:00,
2013-03-02 05:35:00,51.3,45.7,30.21,SSW,198,3.0,4.0,81,0.00,,---,0.00,0.00,VWS V14.01,2013-03-02 13:35:00,
2013-03-02 05:36:00,52.0,46.4,30.21,SSW,200,4.0,5.0,81,0.00,,---,0.00,0.00,VWS V14.01,2013-03-02 13:36:00,
2013-03-02 05:40:00,51.2,45.6,30.21,SSW,193,4.0,4.0,81,0.00,,---,0.00,0.00,VWS V14.01,2013-03-02 13:40:00,
2013-03-02 05:41:00,51.9,46.3,30.22,SSW,203,1.0,5.0,81,0.00,,---,0.00,0.00,VWS V14.01,2013-03-02 13:41:00,
2013-03-02 05:45:00,51.2,45.6,30.20,SSE,166,4.0,8.0,81,0.00,,---,0.00,0.00,VWS V14.01,2013-03-02 13:45:00,
2013-03-02 05:46:00,51.9,46.3,30.21,South,188,3.0,3.0,81,0.00,,---,0.00,0.00,VWS V14.01,2013-03-02 13:46:00,
2013-03-02 05:50:00,51.2,45.6,30.20,South,173,2.0,7.0,81,0.00,,---,0.00,0.00,VWS V14.01,2013-03-02 13:50:00,
2013-03-02 05:51:00,51.8,46.2,30.21,South,186,2.0,4.0,81,0.00,,---,0.00,0.00,VWS V14.01,2013-03-02 13:51:00,
2013-03-02 05:55:00,51.3,45.7,30.20,SSW,204,0.0,6.0,81,0.00,,---,0.00,0.00,VWS V14.01,2013-03-02 13:55:00,
2013-03-02 05:56:00,51.8,46.2,30.21,SSW,199,2.0,4.0,81,0.00,,---,0.00,0.00,VWS V14.01,2013-03-02 13:56:00,
2013-03-02 06:00:00,51.2,45.6,30.20,SSW,198,2.0,5.0,81,0.00,,---,0.00,0.00,VWS V14.01,2013-03-02 14:00:00,
2013-03-02 06:01:00,51.7,46.1,30.21,SSW,200,2.0,2.0,81,0.00,,---,0.00,0.00,VWS V14.01,2013-03-02 14:01:00,
2013-03-02 06:05:00,51.2,45.6,30.20,South,186,4.0,8.0,81,0.00,,---,0.00,7.00,VWS V14.01,2013-03-02 14:05:00,
2013-03-02 06:06:00,51.6,46.0,30.21,SSW,196,5.0,6.0,81,0.00,,---,0.00,0.00,VWS V14.01,2013-03-02 14:06:00,
2013-03-02 06:10:00,51.2,45.6,30.20,South,190,5.0,9.0,81,0.00,,---,0.00,11.00,VWS V14.01,2013-03-02 14:10:00,
2013-03-02 06:11:00,51.6,46.0,30.21,SSW,203,3.0,5.0,81,0.00,,---,0.00,0.00,VWS V14.01,2013-03-02 14:11:00,
2013-03-02 06:15:00,51.3,45.7,30.20,South,175,4.0,7.0,81,0.00,,---,0.00,14.00,VWS V14.01,2013-03-02 14:15:00,
2013-03-02 06:16:00,51.5,45.9,30.21,South,186,1.0,4.0,81,0.00,,---,0.00,0.00,VWS V14.01,2013-03-02 14:16:00,
2013-03-02 06:20:00,51.4,45.8,30.19,South,181,2.0,8.0,81,0.00,,---,0.00,18.00,VWS V14.01,2013-03-02 14:20:00,
2013-03-02 06:21:00,51.5,45.9,30.21,SW,217,3.0,6.0,81,0.00,,---,0.00,0.00,VWS V14.01,2013-03-02 14:21:00,
2013-03-02 06:25:00,51.4,45.8,30.19,South,171,4.0,9.0,81,0.00,,---,0.00,23.00,VWS V14.01,2013-03-02 14:25:00,
2013-03-02 06:26:00,51.4,45.8,30.21,South,188,2.0,4.0,81,0.00,,---,0.00,0.00,VWS V14.01,2013-03-02 14:26:00,
2013-03-02 06:30:00,51.6,45.6,30.19,SW,214,10.0,12.0,80,0.00,,---,0.00,30.00,VWS V14.01,2013-03-02 14:30:00,
2013-03-02 06:31:00,51.3,45.7,30.21,SSE,157,0.0,4.0,81,0.00,,---,0.00,0.00,VWS V14.01,2013-03-02 14:31:00,
2013-03-02 06:35:00,51.7,45.7,30.19,SSW,205,7.0,10.0,80,0.00,,---,0.00,37.00,VWS V14.01,2013-03-02 14:35:00,
2013-03-02 06:36:00,51.2,45.6,30.21,SSE,162,2.0,3.0,81,0.00,,---,0.00,0.00,VWS V14.01,2013-03-02 14:36:00,
2013-03-02 06:40:00,51.7,45.7,30.19,SSW,204,6.0,9.0,80,0.00,,---,0.00,44.00,VWS V14.01,2013-03-02 14:40:00,
2013-03-02 06:41:00,51.2,45.6,30.20,SW,223,4.0,6.0,81,0.00,,---,0.00,0.00,VWS V14.01,2013-03-02 14:41:00,
2013-03-02 06:45:00,51.7,45.7,30.19,South,189,2.0,11.0,80,0.00,,---,0.00,42.00,VWS V14.01,2013-03-02 14:45:00,
2013-03-02 06:46:00,51.2,45.6,30.20,SSW,193,3.0,7.0,81,0.00,,---,0.00,0.00,VWS V14.01,2013-03-02 14:46:00,
2013-03-02 06:50:00,51.7,45.7,30.19,SSW,197,4.0,9.0,80,0.00,,---,0.00,49.00,VWS V14.01,2013-03-02 14:50:00,
2013-03-02 06:51:00,51.3,45.7,30.20,South,188,1.0,6.0,81,0.00,,---,0.00,0.00,VWS V14.01,2013-03-02 14:51:00,
2013-03-02 06:55:00,51.7,45.7,30.19,SSW,209,4.0,8.0,80,0.00,,---,0.00,65.00,VWS V14.01,2013-03-02 14:55:00,
2013-03-02 06:56:00,51.2,45.6,30.20,South,191,2.0,5.0,81,0.00,,---,0.00,0.00,VWS V14.01,2013-03-02 14:56:00,
2013-03-02 07:00:00,51.8,45.8,30.18,South,179,2.0,7.0,80,0.00,,---,0.00,70.00,VWS V14.01,2013-03-02 15:00:00,
2013-03-02 07:01:00,51.2,45.6,30.20,South,188,7.0,8.0,81,0.00,,---,0.00,5.00,VWS V14.01,2013-03-02 15:01:00,
2013-03-02 07:05:00,51.8,45.8,30.18,South,172,6.0,7.0,80,0.00,,---,0.00,77.00,VWS V14.01,2013-03-02 15:05:00,
2013-03-02 07:06:00,51.2,45.6,30.19,South,188,7.0,9.0,81,0.00,,---,0.00,11.00,VWS V14.01,2013-03-02 15:06:00,
2013-03-02 07:10:00,52.0,46.0,30.17,SSE,153,5.0,11.0,80,0.00,,---,0.00,79.00,VWS V14.01,2013-03-02 15:10:00,
2013-03-02 07:11:00,51.2,45.6,30.20,SSW,204,4.0,7.0,81,0.00,,---,0.00,14.00,VWS V14.01,2013-03-02 15:11:00,
2013-03-02 07:15:00,52.2,46.2,30.17,SE,146,6.0,11.0,80,0.00,,---,0.00,88.00,VWS V14.01,2013-03-02 15:15:00,
2013-03-02 07:16:00,51.4,45.8,30.20,SSW,202,5.0,8.0,81,0.00,,---,0.00,16.00,VWS V14.01,2013-03-02 15:16:00,
2013-03-02 07:20:00,52.5,46.5,30.17,South,185,11.0,12.0,80,0.00,,---,0.00,98.00,VWS V14.01,2013-03-02 15:20:00,
2013-03-02 07:21:00,51.4,45.8,30.19,SSW,194,3.0,8.0,81,0.00,,---,0.00,19.00,VWS V14.01,2013-03-02 15:21:00,
2013-03-02 07:25:00,52.8,46.5,30.17,South,191,9.0,15.0,79,0.00,,---,0.00,120.00,VWS V14.01,2013-03-02 15:25:00,
2013-03-02 07:26:00,51.6,45.6,30.19,South,188,6.0,12.0,80,0.00,,---,0.00,30.00,VWS V14.01,2013-03-02 15:26:00,
2013-03-02 07:30:00,53.0,46.7,30.17,SSW,202,9.0,14.0,79,0.00,,---,0.00,127.00,VWS V14.01,2013-03-02 15:30:00,
2013-03-02 07:31:00,51.7,45.7,30.19,SSW,205,7.0,10.0,80,0.00,,---,0.00,35.00,VWS V14.01,2013-03-02 15:31:00,
2013-03-02 07:35:00,53.2,46.5,30.17,SSW,196,7.0,14.0,78,0.00,,---,0.00,121.00,VWS V14.01,2013-03-02 15:35:00,
2013-03-02 07:36:00,51.7,45.7,30.19,South,175,7.0,9.0,80,0.00,,---,0.00,44.00,VWS V14.01,2013-03-02 15:36:00,
2013-03-02 07:40:00,53.2,46.5,30.17,SSW,210,7.0,11.0,78,0.00,,---,0.00,132.00,VWS V14.01,2013-03-02 15:40:00,
2013-03-02 07:41:00,51.7,45.7,30.19,SSW,207,5.0,11.0,80,0.00,,---,0.00,42.00,VWS V14.01,2013-03-02 15:41:00,
2013-03-02 07:45:00,53.1,46.4,30.17,SSW,196,7.0,10.0,78,0.00,,---,0.00,134.00,VWS V14.01,2013-03-02 15:45:00,
2013-03-02 07:46:00,51.7,45.7,30.19,South,181,5.0,9.0,80,0.00,,---,0.00,46.00,VWS V14.01,2013-03-02 15:46:00,
2013-03-02 07:50:00,53.1,46.4,30.17,SSW,198,7.0,19.0,78,0.00,,---,0.00,142.00,VWS V14.01,2013-03-02 15:50:00,
2013-03-02 07:51:00,51.7,45.7,30.19,SW,228,5.0,8.0,80,0.00,,---,0.00,63.00,VWS V14.01,2013-03-02 15:51:00,
2013-03-02 07:55:00,53.1,46.4,30.17,South,181,13.0,15.0,78,0.00,,---,0.00,144.00,VWS V14.01,2013-03-02 15:55:00,
2013-03-02 07:56:00,51.8,45.8,30.18,SSW,198,5.0,7.0,80,0.00,,---,0.00,67.00,VWS V14.01,2013-03-02 15:56:00,
2013-03-02 08:00:00,53.0,46.3,30.17,SSW,194,9.0,13.0,78,0.00,,---,0.00,130.00,VWS V14.01,2013-03-02 16:00:00,
2013-03-02 08:01:00,51.8,45.8,30.18,South,182,4.0,7.0,80,0.00,,---,0.00,72.00,VWS V14.01,2013-03-02 16:01:00,
2013-03-02 08:05:00,53.0,46.7,30.17,SSW,204,4.0,9.0,79,0.00,,---,0.00,158.00,VWS V14.01,2013-03-02 16:05:00,
2013-03-02 08:06:00,51.9,45.9,30.17,SSW,198,4.0,11.0,80,0.00,,---,0.00,77.00,VWS V14.01,2013-03-02 16:06:00,
2013-03-02 08:10:00,53.1,46.8,30.17,SSW,207,8.0,13.0,79,0.00,,---,0.00,163.00,VWS V14.01,2013-03-02 16:10:00,
2013-03-02 08:11:00,52.2,46.2,30.17,South,182,4.0,11.0,80,0.00,,---,0.00,86.00,VWS V14.01,2013-03-02 16:11:00,
2013-03-02 08:15:00,53.1,46.8,30.17,SSW,195,7.0,13.0,79,0.00,,---,0.00,179.00,VWS V14.01,2013-03-02 16:15:00,
2013-03-02 08:16:00,52.4,46.4,30.17,SSW,195,6.0,12.0,80,0.00,,---,0.00,97.00,VWS V14.01,2013-03-02 16:16:00,
2013-03-02 08:20:00,53.2,46.9,30.17,South,186,3.0,10.0,79,0.00,,---,0.00,186.00,VWS V14.01,2013-03-02 16:20:00,
2013-03-02 08:21:00,52.7,46.7,30.17,SSW,200,11.0,15.0,80,0.00,,---,0.00,116.00,VWS V14.01,2013-03-02 16:21:00,
2013-03-02 08:25:00,53.3,46.6,30.17,South,174,6.0,10.0,78,0.00,,---,0.00,195.00,VWS V14.01,2013-03-02 16:25:00,
2013-03-02 08:26:00,53.0,46.7,30.17,SSW,203,7.0,14.0,79,0.00,,---,0.00,128.00,VWS V14.01,2013-03-02 16:26:00,
2013-03-02 08:30:00,53.4,46.7,30.17,SW,233,4.0,11.0,78,0.00,,---,0.00,183.00,VWS V14.01,2013-03-02 16:30:00,
2013-03-02 08:31:00,53.2,46.5,30.17,SSW,195,11.0,14.0,78,0.00,,---,0.00,121.00,VWS V14.01,2013-03-02 16:31:00,
2013-03-02 08:35:00,53.4,46.7,30.17,South,179,9.0,15.0,78,0.00,,---,0.00,167.00,VWS V14.01,2013-03-02 16:35:00,
2013-03-02 08:36:00,53.2,46.5,30.17,SSW,192,8.0,11.0,78,0.00,,---,0.00,125.00,VWS V14.01,2013-03-02 16:36:00,
2013-03-02 08:40:00,53.3,46.6,30.17,SW,221,11.0,11.0,78,0.00,,---,0.00,167.00,VWS V14.01,2013-03-02 16:40:00,
2013-03-02 08:41:00,53.1,46.8,30.17,SW,229,7.0,10.0,79,0.00,,---,0.00,135.00,VWS V14.01,2013-03-02 16:41:00,
2013-03-02 08:45:00,53.3,46.6,30.17,South,184,7.0,13.0,78,0.00,,---,0.00,158.00,VWS V14.01,2013-03-02 16:45:00,
2013-03-02 08:46:00,53.1,46.8,30.17,SSE,163,6.0,12.0,79,0.00,,---,0.00,144.00,VWS V14.01,2013-03-02 16:46:00,
2013-03-02 08:50:00,53.3,46.6,30.17,SSW,203,8.0,13.0,78,0.00,,---,0.00,181.00,VWS V14.01,2013-03-02 16:50:00,
2013-03-02 08:51:00,53.1,46.4,30.17,South,178,8.0,15.0,78,0.00,,---,0.00,144.00,VWS V14.01,2013-03-02 16:51:00,
2013-03-02 08:55:00,53.4,47.1,30.17,South,172,6.0,13.0,79,0.00,,---,0.00,218.00,VWS V14.01,2013-03-02 16:55:00,
2013-03-02 08:56:00,53.1,46.4,30.17,SSW,201,5.0,13.0,78,0.00,,---,0.00,127.00,VWS V14.01,2013-03-02 16:56:00,
2013-03-02 09:00:00,53.5,46.8,30.17,South,169,6.0,13.0,78,0.00,,---,0.00,232.00,VWS V14.01,2013-03-02 17:00:00,
2013-03-02 09:01:00,53.1,46.4,30.17,SSW,202,5.0,9.0,78,0.00,,---,0.00,156.00,VWS V14.01,2013-03-02 17:01:00,
2013-03-02 09:05:00,53.6,46.6,30.16,WSW,238,5.0,10.0,77,0.00,,---,0.00,288.00,VWS V14.01,2013-03-02 17:05:00,
2013-03-02 09:06:00,53.1,46.4,30.17,South,171,6.0,13.0,78,0.00,,---,0.00,162.00,VWS V14.01,2013-03-02 17:06:00,
2013-03-02 09:10:00,53.8,47.1,30.16,SSW,198,4.0,9.0,78,0.00,,---,0.00,299.00,VWS V14.01,2013-03-02 17:10:00,
2013-03-02 09:11:00,53.1,46.4,30.17,SSW,205,6.0,13.0,78,0.00,,---,0.00,179.00,VWS V14.01,2013-03-02 17:11:00,
2013-03-02 09:15:00,54.0,47.3,30.16,South,172,8.0,12.0,78,0.00,,---,0.00,316.00,VWS V14.01,2013-03-02 17:15:00,
2013-03-02 09:16:00,53.2,46.9,30.17,South,190,7.0,10.0,79,0.00,,---,0.00,188.00,VWS V14.01,2013-03-02 17:16:00,
2013-03-02 09:20:00,54.2,47.2,30.16,SSW,194,8.0,14.0,77,0.00,,---,0.00,357.00,VWS V14.01,2013-03-02 17:20:00,
2013-03-02 09:21:00,53.3,46.6,30.17,South,187,6.0,10.0,78,0.00,,---,0.00,193.00,VWS V14.01,2013-03-02 17:21:00,
2013-03-02 09:25:00,54.4,48.0,30.16,SSW,209,9.0,9.0,79,0.00,,---,0.00,343.00,VWS V14.01,2013-03-02 17:25:00,
2013-03-02 09:26:00,53.4,46.7,30.17,SW,223,5.0,11.0,78,0.00,,---,0.00,185.00,VWS V14.01,2013-03-02 17:26:00,
2013-03-02 09:30:00,54.5,48.1,30.15,South,171,8.0,12.0,79,0.00,,---,0.00,371.00,VWS V14.01,2013-03-02 17:30:00,
2013-03-02 09:31:00,53.4,46.4,30.17,SSW,212,7.0,15.0,77,0.00,,---,0.00,165.00,VWS V14.01,2013-03-02 17:31:00,
2013-03-02 09:35:00,54.6,47.9,30.15,South,184,7.0,15.0,78,0.01,,---,0.01,348.00,VWS V14.01,2013-03-02 17:35:00,
2013-03-02 09:36:00,53.3,46.6,30.17,SSE,163,8.0,9.0,78,0.00,,---,0.00,172.00,VWS V14.01,2013-03-02 17:36:00,
2013-03-02 09:40:00,54.5,48.1,30.15,South,186,9.0,18.0,79,0.01,,---,0.01,381.00,VWS V14.01,2013-03-02 17:40:00,
2013-03-02 09:41:00,53.3,46.6,30.17,SSE,167,7.0,13.0,78,0.00,,---,0.00,151.00,VWS V14.01,2013-03-02 17:41:00,
2013-03-02 09:45:00,54.8,47.7,30.15,South,187,5.0,13.0,77,0.01,,---,0.01,366.00,VWS V14.01,2013-03-02 17:45:00,
2013-03-02 09:46:00,53.2,46.5,30.17,SW,219,13.0,13.0,78,0.00,,---,0.00,186.00,VWS V14.01,2013-03-02 17:46:00,
2013-03-02 09:50:00,54.6,47.9,30.15,South,177,8.0,13.0,78,0.01,,---,0.01,353.00,VWS V14.01,2013-03-02 17:50:00,
2013-03-02 09:51:00,53.4,46.7,30.17,South,170,8.0,13.0,78,0.00,,---,0.00,214.00,VWS V14.01,2013-03-02 17:51:00,
2013-03-02 09:55:00,54.6,47.9,30.15,South,183,17.0,17.0,78,0.01,,---,0.01,388.00,VWS V14.01,2013-03-02 17:55:00,
2013-03-02 09:56:00,53.5,46.8,30.16,SW,230,6.0,13.0,78,0.00,,---,0.00,230.00,VWS V14.01,2013-03-02 17:56:00,
2013-03-02 10:00:00,54.6,47.9,30.15,SSW,192,8.0,17.0,78,0.01,,---,0.01,427.00,VWS V14.01,2013-03-02 18:00:00,
2013-03-02 10:01:00,53.6,47.3,30.16,South,185,7.0,10.0,79,0.00,,---,0.00,316.00,VWS V14.01,2013-03-02 18:01:00,
2013-03-02 10:05:00,54.9,47.8,30.14,SSW,206,10.0,17.0,77,0.01,,---,0.01,292.00,VWS V14.01,2013-03-02 18:05:00,
2013-03-02 10:06:00,53.7,47.0,30.16,South,179,4.0,9.0,78,0.00,,---,0.00,318.00,VWS V14.01,2013-03-02 18:06:00,
2013-03-02 10:10:00,54.6,47.5,30.15,SW,228,7.0,18.0,77,0.01,,---,0.01,297.00,VWS V14.01,2013-03-02 18:10:00,
2013-03-02 10:11:00,54.0,47.0,30.16,SW,219,6.0,12.0,77,0.00,,---,0.00,323.00,VWS V14.01,2013-03-02 18:11:00,
2013-03-02 10:15:00,54.8,48.1,30.15,SSW,209,8.0,15.0,78,0.01,,---,0.01,346.00,VWS V14.01,2013-03-02 18:15:00,
2013-03-02 10:16:00,54.2,47.5,30.16,South,171,8.0,12.0,78,0.00,,---,0.00,357.00,VWS V14.01,2013-03-02 18:16:00,
2013-03-02 10:20:00,54.7,47.6,30.15,SW,235,6.0,16.0,77,0.01,,---,0.01,309.00,VWS V14.01,2013-03-02 18:20:00,
2013-03-02 10:21:00,54.3,47.9,30.16,South,190,8.0,8.0,79,0.00,,---,0.00,348.00,VWS V14.01,2013-03-02 18:21:00,
2013-03-02 10:25:00,54.7,47.6,30.14,SSW,201,4.0,14.0,77,0.01,,---,0.01,313.00,VWS V14.01,2013-03-02 18:25:00,
2013-03-02 10:26:00,54.5,47.8,30.15,South,181,6.0,12.0,78,0.00,,---,0.00,380.00,VWS V14.01,2013-03-02 18:26:00,
2013-03-02 10:30:00,54.9,47.8,30.14,SW,235,9.0,14.0,77,0.01,,---,0.01,329.00,VWS V14.01,2013-03-02 18:30:00,
2013-03-02 10:31:00,54.6,47.9,30.15,South,171,6.0,15.0,78,0.01,,---,0.01,339.00,VWS V14.01,2013-03-02 18:31:00,
2013-03-02 10:35:00,54.9,47.8,30.14,SSW,209,7.0,20.0,77,0.01,,---,0.01,371.00,VWS V14.01,2013-03-02 18:35:00,
2013-03-02 10:36:00,54.4,47.7,30.15,SSW,200,6.0,18.0,78,0.01,,---,0.01,383.00,VWS V14.01,2013-03-02 18:36:00,
2013-03-02 10:40:00,54.9,47.8,30.14,SW,216,11.0,18.0,77,0.00,,---,0.01,336.00,VWS V14.01,2013-03-02 18:40:00,
2013-03-02 10:41:00,54.8,48.1,30.15,SW,236,7.0,9.0,78,0.01,,---,0.01,367.00,VWS V14.01,2013-03-02 18:41:00,
2013-03-02 10:45:00,54.9,47.8,30.14,SSW,211,7.0,16.0,77,0.00,,---,0.01,431.00,VWS V14.01,2013-03-02 18:45:00,
2013-03-02 10:46:00,54.6,47.9,30.15,South,190,9.0,13.0,78,0.01,,---,0.01,369.00,VWS V14.01,2013-03-02 18:46:00,
2013-03-02 10:50:00,55.1,48.0,30.13,South,180,11.0,19.0,77,0.00,,---,0.01,336.00,VWS V14.01,2013-03-02 18:50:00,
2013-03-02 10:51:00,54.6,47.9,30.15,SSW,206,4.0,16.0,78,0.01,,---,0.01,396.00,VWS V14.01,2013-03-02 18:51:00,
2013-03-02 10:55:00,54.9,47.8,30.13,SSW,211,8.0,14.0,77,0.00,,---,0.01,323.00,VWS V14.01,2013-03-02 18:55:00,
2013-03-02 10:56:00,54.6,47.9,30.15,SSW,199,8.0,17.0,78,0.01,,---,0.01,427.00,VWS V14.01,2013-03-02 18:56:00,
2013-03-02 11:00:00,54.9,47.8,30.13,SW,227,11.0,18.0,77,0.00,,---,0.01,343.00,VWS V14.01,2013-03-02 19:00:00,
2013-03-02 11:01:00,54.9,47.8,30.14,SSW,210,7.0,17.0,77,0.01,,---,0.01,299.00,VWS V14.01,2013-03-02 19:01:00,
2013-03-02 11:05:00,55.0,47.9,30.13,SSW,203,11.0,16.0,77,0.00,,---,0.01,336.00,VWS V14.01,2013-03-02 19:05:00,
2013-03-02 11:06:00,54.7,48.0,30.14,SSW,200,11.0,18.0,78,0.01,,---,0.01,301.00,VWS V14.01,2013-03-02 19:06:00,
2013-03-02 11:10:00,55.2,47.8,30.13,SSW,193,12.0,14.0,76,0.00,,---,0.01,316.00,VWS V14.01,2013-03-02 19:10:00,
2013-03-02 11:11:00,54.7,48.3,30.14,SSW,195,5.0,15.0,79,0.01,,---,0.01,301.00,VWS V14.01,2013-03-02 19:11:00,
2013-03-02 11:15:00,55.1,48.0,30.12,SSW,204,8.0,15.0,77,0.00,,---,0.01,274.00,VWS V14.01,2013-03-02 19:15:00,
2013-03-02 11:16:00,54.7,47.6,30.14,SW,219,9.0,16.0,77,0.01,,---,0.01,313.00,VWS V14.01,2013-03-02 19:16:00,
2013-03-02 11:20:00,55.0,47.6,30.13,South,172,10.0,23.0,76,0.00,,---,0.01,276.00,VWS V14.01,2013-03-02 19:20:00,
2013-03-02 11:21:00,54.7,47.6,30.14,SW,233,14.0,14.0,77,0.01,,---,0.01,309.00,VWS V14.01,2013-03-02 19:21:00,
2013-03-02 11:25:00,54.8,47.7,30.13,SSW,207,8.0,17.0,77,0.00,,---,0.01,262.00,VWS V14.01,2013-03-02 19:25:00,
2013-03-02 11:26:00,54.9,48.2,30.14,SSW,198,7.0,13.0,78,0.01,,---,0.01,327.00,VWS V14.01,2013-03-02 19:26:00,
2013-03-02 11:30:00,54.8,47.7,30.12,SW,225,6.0,15.0,77,0.00,,---,0.01,274.00,VWS V14.01,2013-03-02 19:30:00,
2013-03-02 11:31:00,54.9,47.5,30.14,South,182,11.0,18.0,76,0.01,,---,0.01,373.00,VWS V14.01,2013-03-02 19:31:00,
2013-03-02 11:35:00,54.9,48.2,30.12,SW,232,6.0,11.0,78,0.00,,---,0.01,274.00,VWS V14.01,2013-03-02 19:35:00,
2013-03-02 11:36:00,54.9,47.8,30.14,SSW,199,15.0,18.0,77,0.00,,---,0.01,334.00,VWS V14.01,2013-03-02 19:36:00,
2013-03-02 11:40:00,54.8,48.4,30.12,South,185,6.0,11.0,79,0.00,,---,0.01,279.00,VWS V14.01,2013-03-02 19:40:00,
2013-03-02 11:41:00,54.8,47.7,30.14,SSW,192,10.0,16.0,77,0.00,,---,0.01,424.00,VWS V14.01,2013-03-02 19:41:00,
2013-03-02 11:45:00,54.8,47.7,30.12,WSW,250,6.0,13.0,77,0.00,,---,0.01,323.00,VWS V14.01,2013-03-02 19:45:00,
2013-03-02 11:46:00,55.0,47.9,30.13,SSE,164,12.0,14.0,77,0.00,,---,0.01,392.00,VWS V14.01,2013-03-02 19:46:00,
2013-03-02 11:50:00,55.1,47.7,30.12,SSW,211,9.0,10.0,76,0.00,,---,0.01,410.00,VWS V14.01,2013-03-02 19:50:00,
2013-03-02 11:51:00,54.9,47.8,30.13,South,191,9.0,14.0,77,0.00,,---,0.01,322.00,VWS V14.01,2013-03-02 19:51:00,
2013-03-02 11:55:00,55.1,48.4,30.12,WSW,239,8.0,15.0,78,0.00,,---,0.01,338.00,VWS V14.01,2013-03-02 19:55:00,
2013-03-02 11:56:00,54.9,47.8,30.13,SSW,209,8.0,17.0,77,0.00,,---,0.01,355.00,VWS V14.01,2013-03-02 19:56:00,
2013-03-02 12:00:00,55.0,47.6,30.11,SSE,167,4.0,13.0,76,0.00,,---,0.01,332.00,VWS V14.01,2013-03-02 20:00:00,
2013-03-02 12:01:00,55.0,47.9,30.13,SW,227,16.0,16.0,77,0.00,,---,0.01,341.00,VWS V14.01,2013-03-02 20:01:00,
2013-03-02 12:05:00,55.0,47.9,30.11,WSW,240,8.0,18.0,77,0.00,,---,0.01,322.00,VWS V14.01,2013-03-02 20:05:00,
2013-03-02 12:06:00,55.2,48.5,30.13,South,171,13.0,14.0,78,0.00,,---,0.01,322.00,VWS V14.01,2013-03-02 20:06:00,
2013-03-02 12:10:00,55.1,48.0,30.11,SW,217,6.0,12.0,77,0.00,,---,0.01,257.00,VWS V14.01,2013-03-02 20:10:00,
2013-03-02 12:11:00,55.1,48.0,30.13,South,190,8.0,15.0,77,0.00,,---,0.01,283.00,VWS V14.01,2013-03-02 20:11:00,
2013-03-02 12:15:00,55.0,47.6,30.11,SW,222,9.0,10.0,76,0.00,,---,0.01,246.00,VWS V14.01,2013-03-02 20:15:00,
2013-03-02 12:16:00,55.0,47.9,30.12,SSW,199,13.0,16.0,77,0.00,,---,0.01,278.00,VWS V14.01,2013-03-02 20:16:00,
2013-03-02 12:20:00,55.2,48.1,30.11,SSW,193,6.0,10.0,77,0.00,,---,0.01,288.00,VWS V14.01,2013-03-02 20:20:00,
2013-03-02 12:21:00,54.8,47.7,30.12,SW,221,13.0,17.0,77,0.00,,---,0.01,258.00,VWS V14.01,2013-03-02 20:21:00,
2013-03-02 12:25:00,55.1,47.7,30.11,SSW,199,5.0,17.0,76,0.00,,---,0.01,297.00,VWS V14.01,2013-03-02 20:25:00,
2013-03-02 12:26:00,54.8,47.7,30.12,South,188,7.0,15.0,77,0.00,,---,0.01,271.00,VWS V14.01,2013-03-02 20:26:00,
2013-03-02 12:30:00,55.2,47.4,30.11,WSW,244,5.0,11.0,75,0.00,,---,0.01,267.00,VWS V14.01,2013-03-02 20:30:00,
2013-03-02 12:31:00,54.8,47.7,30.12,SSW,212,5.0,11.0,77,0.00,,---,0.01,278.00,VWS V14.01,2013-03-02 20:31:00,
2013-03-02 12:35:00,55.3,47.9,30.10,SW,217,8.0,13.0,76,0.00,,---,0.01,181.00,VWS V14.01,2013-03-02 20:35:00,
2013-03-02 12:36:00,54.8,48.1,30.12,South,169,7.0,11.0,78,0.00,,---,0.01,272.00,VWS V14.01,2013-03-02 20:36:00,
2013-03-02 12:40:00,55.2,47.4,30.10,SW,226,13.0,13.0,75,0.00,,---,0.01,118.00,VWS V14.01,2013-03-02 20:40:00,
2013-03-02 12:41:00,54.9,47.8,30.12,SW,231,11.0,13.0,77,0.00,,---,0.01,322.00,VWS V14.01,2013-03-02 20:41:00,
2013-03-02 12:45:00,55.1,47.3,30.10,SSW,212,5.0,13.0,75,0.00,,---,0.01,146.00,VWS V14.01,2013-03-02 20:45:00,
2013-03-02 12:46:00,55.0,48.3,30.12,South,188,6.0,10.0,78,0.00,,---,0.01,403.00,VWS V14.01,2013-03-02 20:46:00,
2013-03-02 12:50:00,55.1,47.3,30.10,South,176,10.0,10.0,75,0.00,,---,0.01,190.00,VWS V14.01,2013-03-02 20:50:00,
2013-03-02 12:51:00,55.1,48.0,30.12,SSW,211,6.0,11.0,77,0.00,,---,0.01,318.00,VWS V14.01,2013-03-02 20:51:00,
2013-03-02 12:55:00,55.3,46.8,30.10,SSW,207,7.0,14.0,73,0.00,,---,0.01,195.00,VWS V14.01,2013-03-02 20:55:00,
2013-03-02 12:56:00,55.0,47.6,30.11,WSW,241,6.0,13.0,76,0.00,,---,0.01,357.00,VWS V14.01,2013-03-02 20:56:00,
2013-03-02 13:00:00,55.3,46.8,30.10,South,190,8.0,12.0,73,0.00,,---,0.01,151.00,VWS V14.01,2013-03-02 21:00:00,
2013-03-02 13:01:00,55.0,47.6,30.11,SSW,211,13.0,18.0,76,0.00,,---,0.01,366.00,VWS V14.01,2013-03-02 21:01:00,
2013-03-02 13:05:00,55.2,46.7,30.10,WSW,257,12.0,14.0,73,0.00,,---,0.01,105.00,VWS V14.01,2013-03-02 21:05:00,
2013-03-02 13:06:00,55.1,47.7,30.11,South,181,7.0,12.0,76,0.00,,---,0.01,265.00,VWS V14.01,2013-03-02 21:06:00,
2013-03-02 13:10:00,55.1,47.0,30.10,SSW,196,9.0,12.0,74,0.00,,---,0.01,95.00,VWS V14.01,2013-03-02 21:10:00,
2013-03-02 13:11:00,55.1,47.7,30.11,SW,233,6.0,10.0,76,0.00,,---,0.01,232.00,VWS V14.01,2013-03-02 21:11:00,
2013-03-02 13:15:00,54.5,47.5,30.10,South,180,10.0,10.0,77,0.00,,---,0.01,83.00,VWS V14.01,2013-03-02 21:15:00,
2013-03-02 13:16:00,55.2,48.1,30.11,SW,218,6.0,10.0,77,0.00,,---,0.01,283.00,VWS V14.01,2013-03-02 21:16:00,
2013-03-02 13:20:00,53.8,48.1,30.10,West,262,7.0,13.0,81,0.00,,---,0.01,98.00,VWS V14.01,2013-03-02 21:20:00,
2013-03-02 13:21:00,55.1,47.3,30.11,South,186,7.0,17.0,75,0.00,,---,0.01,290.00,VWS V14.01,2013-03-02 21:21:00,
2013-03-02 13:25:00,53.0,48.0,30.10,SW,221,6.0,9.0,83,0.01,,---,0.02,111.00,VWS V14.01,2013-03-02 21:25:00,
2013-03-02 13:26:00,55.2,47.8,30.10,WSW,254,7.0,11.0,76,0.00,,---,0.01,281.00,VWS V14.01,2013-03-02 21:26:00,
2013-03-02 13:30:00,52.7,48.3,30.09,SW,229,3.0,8.0,85,0.01,,---,0.02,148.00,VWS V14.01,2013-03-02 21:30:00,
2013-03-02 13:31:00,55.3,47.9,30.10,SW,217,7.0,13.0,76,0.00,,---,0.01,190.00,VWS V14.01,2013-03-02 21:31:00,
2013-03-02 13:35:00,52.6,48.5,30.09,WSW,257,2.0,5.0,86,0.01,,---,0.02,67.00,VWS V14.01,2013-03-02 21:35:00,
2013-03-02 13:36:00,55.3,47.5,30.11,WSW,252,8.0,10.0,75,0.00,,---,0.01,128.00,VWS V14.01,2013-03-02 21:36:00,
2013-03-02 13:40:00,52.6,48.2,30.09,WSW,255,2.0,5.0,85,0.01,,---,0.02,42.00,VWS V14.01,2013-03-02 21:40:00,
2013-03-02 13:41:00,55.1,47.3,30.10,WSW,238,5.0,13.0,75,0.00,,---,0.01,118.00,VWS V14.01,2013-03-02 21:41:00,
2013-03-02 13:45:00,52.7,48.3,30.09,WSW,251,3.0,6.0,85,0.01,,---,0.02,37.00,VWS V14.01,2013-03-02 21:45:00,
2013-03-02 13:46:00,55.1,47.3,30.10,SW,220,7.0,8.0,75,0.00,,---,0.01,178.00,VWS V14.01,2013-03-02 21:46:00,
2013-03-02 13:50:00,52.6,48.2,30.09,West,264,5.0,9.0,85,0.01,,---,0.02,44.00,VWS V14.01,2013-03-02 21:50:00,
2013-03-02 13:51:00,55.2,47.1,30.10,South,178,9.0,12.0,74,0.00,,---,0.01,204.00,VWS V14.01,2013-03-02 21:51:00,
2013-03-02 13:55:00,52.6,48.2,30.09,WSW,239,4.0,8.0,85,0.01,,---,0.02,35.00,VWS V14.01,2013-03-02 21:55:00,
2013-03-02 13:56:00,55.3,47.2,30.10,SSW,194,10.0,12.0,74,0.00,,---,0.01,160.00,VWS V14.01,2013-03-02 21:56:00,
2013-03-02 14:00:00,52.4,48.0,30.09,West,275,4.0,9.0,85,0.02,,---,0.03,51.00,VWS V14.01,2013-03-02 22:00:00,
2013-03-02 14:01:00,55.3,46.8,30.10,SW,234,9.0,14.0,73,0.00,,---,0.01,114.00,VWS V14.01,2013-03-02 22:01:00,
2013-03-02 14:05:00,52.1,48.7,30.09,NW,322,5.0,6.0,88,0.02,,---,0.03,37.00,VWS V14.01,2013-03-02 22:05:00,
2013-03-02 14:06:00,55.1,47.0,30.10,SW,227,5.0,12.0,74,0.00,,---,0.01,105.00,VWS V14.01,2013-03-02 22:06:00,
2013-03-02 14:10:00,51.5,48.4,30.09,SW,223,8.0,15.0,89,0.03,,---,0.04,60.00,VWS V14.01,2013-03-02 22:10:00,
2013-03-02 14:11:00,54.7,47.6,30.10,SSW,212,9.0,9.0,77,0.00,,---,0.01,81.00,VWS V14.01,2013-03-02 22:11:00,
2013-03-02 14:15:00,51.1,48.6,30.09,West,272,5.0,9.0,91,0.03,,---,0.04,47.00,VWS V14.01,2013-03-02 22:15:00,
2013-03-02 14:16:00,53.9,47.5,30.10,SW,220,4.0,13.0,79,0.00,,---,0.01,97.00,VWS V14.01,2013-03-02 22:16:00,
2013-03-02 14:20:00,50.9,48.4,30.10,SW,233,4.0,10.0,91,0.03,,---,0.04,19.00,VWS V14.01,2013-03-02 22:20:00,
2013-03-02 14:21:00,53.1,47.8,30.10,SW,228,7.0,9.0,82,0.01,,---,0.02,98.00,VWS V14.01,2013-03-02 22:21:00,
2013-03-02 14:25:00,50.6,48.4,30.10,West,267,8.0,16.0,92,0.06,,---,0.07,30.00,VWS V14.01,2013-03-02 22:25:00,
2013-03-02 14:26:00,52.7,48.0,30.09,WSW,257,4.0,8.0,84,0.01,,---,0.02,144.00,VWS V14.01,2013-03-02 22:26:00,
2013-03-02 14:30:00,50.3,48.4,30.09,WSW,238,5.0,13.0,93,0.07,,---,0.09,39.00,VWS V14.01,2013-03-02 22:30:00,
2013-03-02 14:31:00,52.6,48.2,30.09,WSW,242,3.0,5.0,85,0.01,,---,0.02,77.00,VWS V14.01,2013-03-02 22:31:00,
2013-03-02 14:35:00,50.1,48.4,30.09,WSW,239,0.0,11.0,94,0.07,,---,0.09,47.00,VWS V14.01,2013-03-02 22:35:00,
2013-03-02 14:36:00,52.6,48.5,30.09,WSW,247,2.0,5.0,86,0.01,,---,0.02,42.00,VWS V14.01,2013-03-02 22:36:00,
2013-03-02 14:40:00,50.1,48.4,30.09,WSW,256,2.0,4.0,94,0.08,,---,0.10,63.00,VWS V14.01,2013-03-02 22:40:00,
2013-03-02 14:41:00,52.6,48.2,30.09,SSW,213,6.0,6.0,85,0.01,,---,0.02,39.00,VWS V14.01,2013-03-02 22:41:00,
2013-03-02 14:45:00,50.0,48.6,30.09,SW,231,3.0,4.0,95,0.08,,---,0.10,77.00,VWS V14.01,2013-03-02 22:45:00,
2013-03-02 14:46:00,52.6,48.2,30.09,West,259,5.0,7.0,85,0.01,,---,0.02,47.00,VWS V14.01,2013-03-02 22:46:00,
2013-03-02 14:50:00,50.0,48.6,30.09,SW,232,3.0,3.0,95,0.08,,---,0.10,44.00,VWS V14.01,2013-03-02 22:50:00,
2013-03-02 14:51:00,52.6,48.2,30.09,WSW,248,4.0,8.0,85,0.01,,---,0.02,46.00,VWS V14.01,2013-03-02 22:51:00,
2013-03-02 14:55:00,50.1,48.7,30.09,West,259,2.0,4.0,95,0.08,,---,0.10,70.00,VWS V14.01,2013-03-02 22:55:00,
2013-03-02 14:56:00,52.4,48.3,30.09,West,263,7.0,9.0,86,0.01,,---,0.02,44.00,VWS V14.01,2013-03-02 22:56:00,
2013-03-02 15:00:00,50.2,48.8,30.09,WSW,257,3.0,3.0,95,0.08,,---,0.10,56.00,VWS V14.01,2013-03-02 23:00:00,
2013-03-02 15:01:00,52.2,48.5,30.09,WSW,253,2.0,6.0,87,0.02,,---,0.03,33.00,VWS V14.01,2013-03-02 23:01:00,
2013-03-02 15:05:00,50.2,48.8,30.09,WSW,244,1.0,3.0,95,0.07,,---,0.10,49.00,VWS V14.01,2013-03-02 23:05:00,
2013-03-02 15:06:00,51.6,48.5,30.09,SW,224,5.0,15.0,89,0.03,,---,0.04,56.00,VWS V14.01,2013-03-02 23:06:00,
2013-03-02 15:10:00,50.3,48.9,30.09,WSW,257,0.0,3.0,95,0.07,,---,0.10,28.00,VWS V14.01,2013-03-02 23:10:00,
2013-03-02 15:11:00,51.1,48.6,30.09,West,265,5.0,8.0,91,0.03,,---,0.04,49.00,VWS V14.01,2013-03-02 23:11:00,
2013-03-02 15:15:00,50.3,48.9,30.09,WNW,284,2.0,3.0,95,0.06,,---,0.10,18.00,VWS V14.01,2013-03-02 23:15:00,
2013-03-02 15:16:00,50.9,48.4,30.10,SW,217,8.0,10.0,91,0.03,,---,0.04,19.00,VWS V14.01,2013-03-02 23:16:00,
2013-03-02 15:20:00,50.3,48.9,30.09,WNW,284,2.0,3.0,95,0.06,,---,0.10,11.00,VWS V14.01,2013-03-02 23:20:00,
2013-03-02 15:21:00,50.6,48.4,30.10,SW,229,15.0,15.0,92,0.06,,---,0.07,28.00,VWS V14.01,2013-03-02 23:21:00,
2013-03-02 15:25:00,50.3,48.9,30.09,West,278,3.0,4.0,95,0.06,,---,0.10,32.00,VWS V14.01,2013-03-02 23:25:00,
2013-03-02 15:26:00,50.3,48.4,30.09,SW,227,4.0,13.0,93,0.07,,---,0.09,39.00,VWS V14.01,2013-03-02 23:26:00,
2013-03-02 15:30:00,50.3,48.9,30.09,WSW,252,5.0,7.0,95,0.03,,---,0.10,19.00,VWS V14.01,2013-03-02 23:30:00,
2013-03-02 15:31:00,50.2,48.5,30.09,WSW,240,2.0,11.0,94,0.07,,---,0.09,47.00,VWS V14.01,2013-03-02 23:31:00,
2013-03-02 15:35:00,50.4,49.0,30.09,WSW,244,8.0,10.0,95,0.01,,---,0.10,28.00,VWS V14.01,2013-03-02 23:35:00,
2013-03-02 15:36:00,50.0,48.3,30.09,SW,219,1.0,4.0,94,0.08,,---,0.10,60.00,VWS V14.01,2013-03-02 23:36:00,
2013-03-02 15:40:00,50.2,48.0,30.10,WNW,297,5.0,11.0,92,0.01,,---,0.10,14.00,VWS V14.01,2013-03-02 23:40:00,
2013-03-02 15:41:00,50.0,48.6,30.09,SW,217,2.0,4.0,95,0.08,,---,0.10,81.00,VWS V14.01,2013-03-02 23:41:00,
2013-03-02 15:45:00,48.9,45.5,30.10,NNW,330,4.0,8.0,88,0.00,,---,0.10,5.00,VWS V14.01,2013-03-02 23:45:00,
2013-03-02 15:46:00,50.0,48.6,30.09,WSW,238,0.0,3.0,95,0.08,,---,0.10,49.00,VWS V14.01,2013-03-02 23:46:00,
2013-03-02 15:50:00,48.0,44.9,30.10,North,355,5.0,7.0,89,0.00,,---,0.10,12.00,VWS V14.01,2013-03-02 23:50:00,
2013-03-02 15:51:00,50.1,48.7,30.09,West,259,0.0,4.0,95,0.08,,---,0.10,65.00,VWS V14.01,2013-03-02 23:51:00,
2013-03-02 15:55:00,47.5,44.7,30.09,NE,46,7.0,8.0,90,0.00,,---,0.10,21.00,VWS V14.01,2013-03-02 23:55:00,
2013-03-02 15:56:00,50.2,48.8,30.09,WSW,258,0.0,3.0,95,0.08,,---,0.10,53.00,VWS V14.01,2013-03-02 23:56:00,
2013-03-02 16:00:00,46.7,43.9,30.11,NNE,15,4.0,8.0,90,0.00,,---,0.10,18.00,VWS V14.01,2013-03-03 00:00:00,
2013-03-02 16:01:00,50.2,48.8,30.09,WSW,257,0.0,3.0,95,0.07,,---,0.10,49.00,VWS V14.01,2013-03-03 00:01:00,
2013-03-02 16:05:00,46.0,43.0,30.11,North,351,3.0,8.0,89,0.00,,---,0.10,5.00,VWS V14.01,2013-03-03 00:05:00,
2013-03-02 16:06:00,50.3,48.9,30.09,WSW,257,0.0,3.0,95,0.07,,---,0.10,30.00,VWS V14.01,2013-03-03 00:06:00,
2013-03-02 16:10:00,45.0,42.0,30.12,NE,42,4.0,12.0,89,0.00,,---,0.10,0.00,VWS V14.01,2013-03-03 00:10:00,
2013-03-02 16:11:00,50.3,48.9,30.09,WNW,284,3.0,3.0,95,0.06,,---,0.10,18.00,VWS V14.01,2013-03-03 00:11:00,
2013-03-02 16:15:00,44.4,41.7,30.12,NE,40,1.0,9.0,90,0.00,,---,0.10,5.00,VWS V14.01,2013-03-03 00:15:00,
2013-03-02 16:16:00,50.3,48.9,30.09,WNW,284,2.0,2.0,95,0.06,,---,0.10,14.00,VWS V14.01,2013-03-03 00:16:00,
2013-03-02 16:20:00,44.0,41.5,30.12,NE,49,4.0,8.0,91,0.01,,---,0.11,7.00,VWS V14.01,2013-03-03 00:20:00,
2013-03-02 16:21:00,50.3,48.9,30.09,West,279,3.0,4.0,95,0.06,,---,0.10,21.00,VWS V14.01,2013-03-03 00:21:00,
2013-03-02 16:25:00,43.7,41.5,30.13,North,360,3.0,7.0,92,0.01,,---,0.11,0.00,VWS V14.01,2013-03-03 00:25:00,
2013-03-02 16:26:00,50.3,48.9,30.09,WSW,240,3.0,7.0,95,0.03,,---,0.10,23.00,VWS V14.01,2013-03-03 00:26:00,
2013-03-02 16:30:00,43.4,41.2,30.13,NE,46,3.0,8.0,92,0.02,,---,0.12,0.00,VWS V14.01,2013-03-03 00:30:00,
2013-03-02 16:31:00,50.4,49.0,30.09,WSW,256,6.0,9.0,95,0.01,,---,0.10,28.00,VWS V14.01,2013-03-03 00:31:00,
2013-03-02 16:35:00,43.1,41.2,30.14,NE,45,3.0,9.0,93,0.03,,---,0.13,0.00,VWS V14.01,2013-03-03 00:35:00,
2013-03-02 16:36:00,50.4,48.7,30.10,NW,323,10.0,11.0,94,0.01,,---,0.10,14.00,VWS V14.01,2013-03-03 00:36:00,
2013-03-02 16:40:00,42.9,41.3,30.14,North,355,4.0,6.0,94,0.04,,---,0.14,0.00,VWS V14.01,2013-03-03 00:40:00,
2013-03-02 16:41:00,49.0,45.6,30.10,NW,311,7.0,8.0,88,0.00,,---,0.10,5.00,VWS V14.01,2013-03-03 00:41:00,
2013-03-02 16:45:00,42.8,41.2,30.14,North,355,0.0,4.0,94,0.05,,---,0.15,5.00,VWS V14.01,2013-03-03 00:45:00,
2013-03-02 16:46:00,48.2,45.1,30.10,NNW,346,4.0,7.0,89,0.00,,---,0.10,9.00,VWS V14.01,2013-03-03 00:46:00,
2013-03-02 16:50:00,42.7,41.1,30.15,ENE,70,0.0,6.0,94,0.06,,---,0.16,0.00,VWS V14.01,2013-03-03 00:50:00,
2013-03-02 16:51:00,47.6,44.8,30.09,ENE,60,4.0,7.0,90,0.00,,---,0.10,21.00,VWS V14.01,2013-03-03 00:51:00,
2013-03-02 16:55:00,42.6,41.0,30.15,ENE,70,0.0,3.0,94,0.07,,---,0.17,0.00,VWS V14.01,2013-03-03 00:55:00,
2013-03-02 16:56:00,46.8,44.0,30.11,NNE,25,4.0,8.0,90,0.00,,---,0.10,18.00,VWS V14.01,2013-03-03 00:56:00,
2013-03-02 17:00:00,42.5,40.9,30.15,East,89,0.0,4.0,94,0.07,,---,0.17,0.00,VWS V14.01,2013-03-03 01:00:00,
2013-03-02 17:01:00,46.1,43.0,30.11,NNW,342,8.0,8.0,89,0.00,,---,0.10,7.00,VWS V14.01,2013-03-03 01:01:00,
2013-03-02 17:05:00,42.4,40.8,30.15,East,86,1.0,3.0,94,0.07,,---,0.17,0.00,VWS V14.01,2013-03-03 01:05:00,
2013-03-02 17:06:00,45.1,42.1,30.12,North,349,6.0,12.0,89,0.00,,---,0.10,0.00,VWS V14.01,2013-03-03 01:06:00,
2013-03-02 17:10:00,42.3,40.7,30.15,SE,143,0.0,3.0,94,0.07,,---,0.17,0.00,VWS V14.01,2013-03-03 01:10:00,
2013-03-02 17:11:00,44.5,41.8,30.12,NNE,12,2.0,9.0,90,0.00,,---,0.10,5.00,VWS V14.01,2013-03-03 01:11:00,
2013-03-02 17:15:00,42.3,41.0,30.16,East,88,0.0,1.0,95,0.08,,---,0.18,0.00,VWS V14.01,2013-03-03 01:15:00,
2013-03-02 17:16:00,44.1,41.7,30.12,ENE,69,1.0,4.0,91,0.01,,---,0.11,7.00,VWS V14.01,2013-03-03 01:16:00,
2013-03-02 17:20:00,42.2,40.9,30.16,East,87,0.0,3.0,95,0.08,,---,0.18,0.00,VWS V14.01,2013-03-03 01:20:00,
2013-03-02 17:21:00,43.8,41.6,30.12,North,360,4.0,7.0,92,0.01,,---,0.11,0.00,VWS V14.01,2013-03-03 01:21:00,
2013-03-02 17:25:00,42.2,40.9,30.16,East,82,2.0,3.0,95,0.07,,---,0.18,0.00,VWS V14.01,2013-03-03 01:25:00,
2013-03-02 17:26:00,43.4,41.2,30.13,NNW,341,4.0,8.0,92,0.02,,---,0.12,0.00,VWS V14.01,2013-03-03 01:26:00,
2013-03-02 17:30:00,42.1,40.8,30.16,ESE,117,0.0,4.0,95,0.07,,---,0.18,0.00,VWS V14.01,2013-03-03 01:30:00,
2013-03-02 17:31:00,43.1,41.2,30.14,North,9,3.0,9.0,93,0.03,,---,0.13,0.00,VWS V14.01,2013-03-03 01:31:00,
2013-03-02 17:35:00,42.0,40.7,30.16,East,95,0.0,5.0,95,0.07,,---,0.19,0.00,VWS V14.01,2013-03-03 01:35:00,
2013-03-02 17:36:00,42.9,41.3,30.14,North,360,3.0,6.0,94,0.04,,---,0.14,0.00,VWS V14.01,2013-03-03 01:36:00,
2013-03-02 17:40:00,42.0,40.7,30.17,East,96,0.0,1.0,95,0.06,,---,0.19,0.00,VWS V14.01,2013-03-03 01:40:00,
2013-03-02 17:41:00,42.8,41.2,30.14,North,355,2.0,4.0,94,0.05,,---,0.15,5.00,VWS V14.01,2013-03-03 01:41:00,
2013-03-02 17:45:00,41.9,40.6,30.17,ESE,103,0.0,3.0,95,0.05,,---,0.19,0.00,VWS V14.01,2013-03-03 01:45:00,
2013-03-02 17:46:00,42.7,41.1,30.15,ENE,69,0.0,6.0,94,0.06,,---,0.16,0.00,VWS V14.01,2013-03-03 01:46:00,
2013-03-02 17:50:00,41.9,40.8,30.17,East,79,1.0,3.0,96,0.05,,---,0.20,0.00,VWS V14.01,2013-03-03 01:50:00,
2013-03-02 17:51:00,42.6,41.0,30.15,ENE,71,0.0,3.0,94,0.07,,---,0.17,0.00,VWS V14.01,2013-03-03 01:51:00,
2013-03-02 17:55:00,41.8,40.5,30.17,SE,130,0.0,3.0,95,0.05,,---,0.21,0.00,VWS V14.01,2013-03-03 01:55:00,
2013-03-02 17:56:00,42.5,40.9,30.15,East,88,2.0,4.0,94,0.07,,---,0.17,0.00,VWS V14.01,2013-03-03 01:56:00,
2013-03-02 18:00:00,41.7,40.4,30.17,ESE,119,1.0,5.0,95,0.05,,---,0.22,0.00,VWS V14.01,2013-03-03 02:00:00,
2013-03-02 18:01:00,42.4,40.8,30.15,East,92,3.0,3.0,94,0.07,,---,0.17,0.00,VWS V14.01,2013-03-03 02:01:00,
2013-03-02 18:05:00,41.5,40.2,30.17,ESE,109,0.0,5.0,95,0.06,,---,0.23,0.00,VWS V14.01,2013-03-03 02:05:00,
2013-03-02 18:06:00,42.3,40.7,30.15,SE,145,0.0,3.0,94,0.07,,---,0.17,0.00,VWS V14.01,2013-03-03 02:06:00,
2013-03-02 18:10:00,41.4,40.3,30.18,East,80,0.0,2.0,96,0.08,,---,0.25,0.00,VWS V14.01,2013-03-03 02:10:00,
2013-03-02 18:11:00,42.3,41.0,30.16,East,87,0.0,1.0,95,0.08,,---,0.18,0.00,VWS V14.01,2013-03-03 02:11:00,
2013-03-02 18:15:00,41.3,40.2,30.18,East,91,0.0,4.0,96,0.08,,---,0.25,0.00,VWS V14.01,2013-03-03 02:15:00,
2013-03-02 18:16:00,42.3,41.0,30.16,East,85,3.0,3.0,95,0.08,,---,0.18,0.00,VWS V14.01,2013-03-03 02:16:00,
2013-03-02 18:20:00,41.3,40.2,30.18,SE,133,3.0,6.0,96,0.07,,---,0.25,0.00,VWS V14.01,2013-03-03 02:20:00,
2013-03-02 18:21:00,42.2,40.9,30.16,NE,55,0.0,3.0,95,0.07,,---,0.18,0.00,VWS V14.01,2013-03-03 02:21:00,
2013-03-02 18:25:00,41.1,40.0,30.18,SE,139,0.0,4.0,96,0.08,,---,0.26,0.00,VWS V14.01,2013-03-03 02:25:00,
2013-03-02 18:26:00,42.2,40.9,30.16,ESE,117,0.0,4.0,95,0.07,,---,0.18,0.00,VWS V14.01,2013-03-03 02:26:00,
2013-03-02 18:30:00,41.0,40.0,30.18,East,98,0.0,3.0,96,0.08,,---,0.26,0.00,VWS V14.01,2013-03-03 02:30:00,
2013-03-02 18:31:00,42.0,40.7,30.16,ESE,114,3.0,5.0,95,0.07,,---,0.19,0.00,VWS V14.01,2013-03-03 02:31:00,
2013-03-02 18:35:00,40.9,39.8,30.18,ESE,103,1.0,6.0,96,0.08,,---,0.26,0.00,VWS V14.01,2013-03-03 02:35:00,
2013-03-02 18:36:00,42.0,40.7,30.17,East,94,0.0,1.0,95,0.06,,---,0.19,0.00,VWS V14.01,2013-03-03 02:36:00,
2013-03-02 18:40:00,40.7,39.7,30.18,East,88,0.0,5.0,96,0.08,,---,0.27,0.00,VWS V14.01,2013-03-03 02:40:00,
2013-03-02 18:41:00,41.9,40.6,30.17,East,101,0.0,3.0,95,0.05,,---,0.19,0.00,VWS V14.01,2013-03-03 02:41:00,
2013-03-02 18:45:00,40.6,39.5,30.18,ENE,67,2.0,6.0,96,0.08,,---,0.27,0.00,VWS V14.01,2013-03-03 02:45:00,
2013-03-02 18:46:00,41.9,40.8,30.17,NE,54,1.0,2.0,96,0.05,,---,0.20,0.00,VWS V14.01,2013-03-03 02:46:00,
2013-03-02 18:50:00,40.4,39.3,30.19,ESE,113,0.0,6.0,96,0.08,,---,0.27,0.00,VWS V14.01,2013-03-03 02:50:00,
2013-03-02 18:51:00,41.8,40.8,30.17,SE,130,0.0,3.0,96,0.05,,---,0.21,0.00,VWS V14.01,2013-03-03 02:51:00,
2013-03-02 18:55:00,40.4,39.3,30.19,ENE,75,2.0,3.0,96,0.07,,---,0.27,0.00,VWS V14.01,2013-03-03 02:55:00,
2013-03-02 18:56:00,41.8,40.5,30.17,East,88,5.0,5.0,95,0.05,,---,0.22,0.00,VWS V14.01,2013-03-03 02:56:00,
2013-03-02 19:00:00,40.2,39.2,30.19,East,97,0.0,5.0,96,0.06,,---,0.27,0.00,VWS V14.01,2013-03-03 03:00:00,
2013-03-02 19:01:00,41.6,40.3,30.17,ESE,109,0.0,5.0,95,0.06,,---,0.23,0.00,VWS V14.01,2013-03-03 03:01:00,
2013-03-02 19:05:00,40.2,39.2,30.18,East,101,0.0,3.0,96,0.05,,---,0.27,0.00,VWS V14.01,2013-03-03 03:05:00,
2013-03-02 19:06:00,41.4,40.3,30.18,ENE,78,0.0,2.0,96,0.07,,---,0.24,0.00,VWS V14.01,2013-03-03 03:06:00,
2013-03-02 19:10:00,40.1,39.0,30.19,ENE,71,2.0,3.0,96,0.04,,---,0.27,0.00,VWS V14.01,2013-03-03 03:10:00,
2013-03-02 19:11:00,41.4,40.3,30.18,ENE,78,0.0,4.0,96,0.08,,---,0.25,0.00,VWS V14.01,2013-03-03 03:11:00,
2013-03-02 19:15:00,40.0,39.0,30.19,ESE,115,1.0,3.0,96,0.02,,---,0.27,0.00,VWS V14.01,2013-03-03 03:15:00,
2013-03-02 19:16:00,41.3,40.2,30.18,ENE,63,4.0,6.0,96,0.07,,---,0.25,0.00,VWS V14.01,2013-03-03 03:16:00,
2013-03-02 19:20:00,39.9,38.8,30.19,ESE,115,1.0,1.0,96,0.02,,---,0.27,0.00,VWS V14.01,2013-03-03 03:20:00,
2013-03-02 19:21:00,41.2,40.2,30.18,East,100,0.0,4.0,96,0.07,,---,0.25,0.00,VWS V14.01,2013-03-03 03:21:00,
2013-03-02 19:25:00,39.8,38.5,30.20,East,86,3.0,4.0,95,0.02,,---,0.27,0.00,VWS V14.01,2013-03-03 03:25:00,
2013-03-02 19:26:00,41.0,40.0,30.18,ESE,115,1.0,3.0,96,0.08,,---,0.26,0.00,VWS V14.01,2013-03-03 03:26:00,
2013-03-02 19:30:00,39.8,38.8,30.20,ESE,112,2.0,3.0,96,0.01,,---,0.27,0.00,VWS V14.01,2013-03-03 03:30:00,
2013-03-02 19:31:00,40.9,39.8,30.18,East,87,3.0,6.0,96,0.08,,---,0.26,0.00,VWS V14.01,2013-03-03 03:31:00,
2013-03-02 19:35:00,39.8,38.8,30.20,East,83,1.0,2.0,96,0.01,,---,0.27,0.00,VWS V14.01,2013-03-03 03:35:00,
2013-03-02 19:36:00,40.7,39.7,30.18,East,87,0.0,5.0,96,0.08,,---,0.27,0.00,VWS V14.01,2013-03-03 03:36:00,
2013-03-02 19:40:00,39.8,38.8,30.20,East,79,0.0,2.0,96,0.02,,---,0.28,0.00,VWS V14.01,2013-03-03 03:40:00,
2013-03-02 19:41:00,40.7,39.7,30.18,East,85,1.0,6.0,96,0.08,,---,0.27,0.00,VWS V14.01,2013-03-03 03:41:00,
2013-03-02 19:45:00,39.8,38.8,30.20,ESE,108,0.0,3.0,96,0.01,,---,0.28,0.00,VWS V14.01,2013-03-03 03:45:00,
2013-03-02 19:46:00,40.4,39.3,30.19,ESE,115,0.0,6.0,96,0.08,,---,0.27,0.00,VWS V14.01,2013-03-03 03:46:00,
2013-03-02 19:50:00,39.8,38.8,30.20,ENE,76,0.0,2.0,96,0.01,,---,0.28,0.00,VWS V14.01,2013-03-03 03:50:00,
2013-03-02 19:51:00,40.4,39.3,30.19,ESE,117,3.0,3.0,96,0.07,,---,0.27,0.00,VWS V14.01,2013-03-03 03:51:00,
2013-03-02 19:55:00,39.8,38.8,30.20,ENE,77,0.0,0.0,96,0.01,,---,0.28,0.00,VWS V14.01,2013-03-03 03:55:00,
2013-03-02 19:56:00,40.2,39.2,30.19,East,99,0.0,5.0,96,0.06,,---,0.27,0.00,VWS V14.01,2013-03-03 03:56:00,
2013-03-02 20:00:00,39.8,38.8,30.20,East,98,0.0,2.0,96,0.02,,---,0.29,0.00,VWS V14.01,2013-03-03 04:00:00,
2013-03-02 20:01:00,40.2,39.2,30.18,ESE,102,0.0,3.0,96,0.05,,---,0.27,0.00,VWS V14.01,2013-03-03 04:01:00,
2013-03-02 20:05:00,39.8,38.8,30.20,East,83,0.0,2.0,96,0.02,,---,0.29,0.00,VWS V14.01,2013-03-03 04:05:00,
2013-03-02 20:06:00,40.1,39.0,30.19,ESE,111,0.0,3.0,96,0.04,,---,0.27,0.00,VWS V14.01,2013-03-03 04:06:00,
2013-03-02 20:10:00,39.8,38.8,30.21,ESE,117,1.0,2.0,96,0.02,,---,0.29,0.00,VWS V14.01,2013-03-03 04:10:00,
2013-03-02 20:11:00,40.0,39.0,30.19,East,98,1.0,2.0,96,0.02,,---,0.27,0.00,VWS V14.01,2013-03-03 04:11:00,
2013-03-02 20:15:00,39.8,38.8,30.21,ESE,119,0.0,1.0,96,0.02,,---,0.29,0.00,VWS V14.01,2013-03-03 04:15:00,
2013-03-02 20:16:00,39.9,38.8,30.19,ESE,114,0.0,1.0,96,0.02,,---,0.27,0.00,VWS V14.01,2013-03-03 04:16:00,
2013-03-02 20:20:00,39.8,38.8,30.21,East,90,0.0,3.0,96,0.02,,---,0.29,0.00,VWS V14.01,2013-03-03 04:20:00,
2013-03-02 20:21:00,39.9,38.6,30.20,SE,126,2.0,4.0,95,0.02,,---,0.27,0.00,VWS V14.01,2013-03-03 04:21:00,
2013-03-02 20:25:00,39.8,38.8,30.21,East,89,0.0,1.0,96,0.03,,---,0.30,0.00,VWS V14.01,2013-03-03 04:25:00,
2013-03-02 20:26:00,39.8,38.8,30.20,East,86,0.0,3.0,96,0.01,,---,0.27,0.00,VWS V14.01,2013-03-03 04:26:00,
2013-03-02 20:30:00,39.8,38.8,30.21,East,88,0.0,1.0,96,0.03,,---,0.30,0.00,VWS V14.01,2013-03-03 04:30:00,
2013-03-02 20:31:00,39.8,38.8,30.20,East,95,0.0,2.0,96,0.01,,---,0.27,0.00,VWS V14.01,2013-03-03 04:31:00,
2013-03-02 20:35:00,39.8,38.8,30.21,East,89,0.0,1.0,96,0.03,,---,0.30,0.00,VWS V14.01,2013-03-03 04:35:00,
2013-03-02 20:36:00,39.8,38.8,30.20,ENE,78,0.0,2.0,96,0.02,,---,0.28,0.00,VWS V14.01,2013-03-03 04:36:00,
2013-03-02 20:40:00,39.8,39.0,30.21,ESE,104,0.0,1.0,97,0.03,,---,0.30,0.00,VWS V14.01,2013-03-03 04:40:00,
2013-03-02 20:41:00,39.8,38.8,30.20,ESE,108,2.0,3.0,96,0.01,,---,0.28,0.00,VWS V14.01,2013-03-03 04:41:00,
2013-03-02 20:45:00,39.9,38.8,30.21,East,86,0.0,3.0,96,0.03,,---,0.31,0.00,VWS V14.01,2013-03-03 04:45:00,
2013-03-02 20:46:00,39.8,38.8,30.20,ENE,63,1.0,2.0,96,0.01,,---,0.28,0.00,VWS V14.01,2013-03-03 04:46:00,
2013-03-02 20:50:00,39.9,39.1,30.21,East,86,0.0,2.0,97,0.03,,---,0.31,0.00,VWS V14.01,2013-03-03 04:50:00,
2013-03-02 20:51:00,39.8,38.8,30.20,ENE,77,0.0,0.0,96,0.01,,---,0.28,0.00,VWS V14.01,2013-03-03 04:51:00,
2013-03-02 20:55:00,39.8,38.8,30.21,East,80,0.0,2.0,96,0.03,,---,0.31,0.00,VWS V14.01,2013-03-03 04:55:00,
2013-03-02 20:56:00,39.8,38.8,30.20,East,98,0.0,2.0,96,0.02,,---,0.29,0.00,VWS V14.01,2013-03-03 04:56:00,
2013-03-02 21:00:00,39.8,38.8,30.20,East,98,0.0,0.0,96,0.02,,---,0.29,0.00,VWS V14.01,2013-03-03 05:00:00,
2013-03-02 21:05:00,39.8,38.8,30.20,East,84,0.0,0.0,96,0.02,,---,0.29,0.00,VWS V14.01,2013-03-03 05:05:00,
2013-03-02 21:10:00,39.8,38.8,30.21,ESE,119,1.0,1.0,96,0.02,,---,0.29,0.00,VWS V14.01,2013-03-03 05:10:00,
2013-03-02 21:15:00,39.8,38.8,30.21,East,88,0.0,3.0,96,0.02,,---,0.29,0.00,VWS V14.01,2013-03-03 05:15:00,
2013-03-02 21:20:00,39.8,38.8,30.21,East,88,0.0,1.0,96,0.02,,---,0.29,0.00,VWS V14.01,2013-03-03 05:20:00,
2013-03-02 21:25:00,39.8,38.8,30.21,East,88,0.0,1.0,96,0.03,,---,0.30,0.00,VWS V14.01,2013-03-03 05:25:00,
2013-03-02 21:30:00,39.8,38.8,30.21,East,90,0.0,1.0,96,0.03,,---,0.30,0.00,VWS V14.01,2013-03-03 05:30:00,
2013-03-02 21:35:00,39.8,38.8,30.21,East,90,1.0,1.0,96,0.03,,---,0.30,0.00,VWS V14.01,2013-03-03 05:35:00,
2013-03-02 21:40:00,39.9,38.8,30.21,East,92,0.0,2.0,96,0.03,,---,0.31,0.00,VWS V14.01,2013-03-03 05:40:00,
2013-03-02 21:45:00,39.9,38.8,30.21,East,86,1.0,1.0,96,0.03,,---,0.31,0.00,VWS V14.01,2013-03-03 05:45:00,
2013-03-02 21:50:00,39.9,39.1,30.21,East,96,0.0,2.0,97,0.03,,---,0.31,0.00,VWS V14.01,2013-03-03 05:50:00,
2013-03-02 21:55:00,39.8,39.0,30.21,ESE,110,3.0,3.0,97,0.03,,---,0.31,0.00,VWS V14.01,2013-03-03 05:55:00,
2013-03-02 22:00:00,39.8,39.0,30.21,East,88,2.0,3.0,97,0.02,,---,0.31,0.00,VWS V14.01,2013-03-03 06:00:00,
2013-03-02 22:05:00,39.8,39.0,30.21,ENE,67,0.0,5.0,97,0.03,,---,0.32,0.00,VWS V14.01,2013-03-03 06:05:00,
2013-03-02 22:10:00,39.7,38.9,30.21,SSE,150,3.0,3.0,97,0.03,,---,0.32,0.00,VWS V14.01,2013-03-03 06:10:00,
2013-03-02 22:15:00,39.6,38.6,30.21,East,88,3.0,5.0,96,0.03,,---,0.32,0.00,VWS V14.01,2013-03-03 06:15:00,
2013-03-02 22:20:00,39.5,38.5,30.21,NE,36,2.0,4.0,96,0.03,,---,0.32,0.00,VWS V14.01,2013-03-03 06:20:00,
2013-03-02 22:25:00,39.4,38.4,30.22,ESE,119,3.0,3.0,96,0.02,,---,0.32,0.00,VWS V14.01,2013-03-03 06:25:00,
2013-03-02 22:30:00,39.3,38.3,30.22,ENE,59,0.0,2.0,96,0.03,,---,0.33,0.00,VWS V14.01,2013-03-03 06:30:00,
2013-03-02 22:35:00,39.3,38.3,30.22,East,80,0.0,3.0,96,0.03,,---,0.33,0.00,VWS V14.01,2013-03-03 06:35:00,
2013-03-02 22:40:00,39.2,38.2,30.22,East,97,0.0,3.0,96,0.03,,---,0.33,0.00,VWS V14.01,2013-03-03 06:40:00,
2013-03-02 22:45:00,39.1,38.1,30.22,East,100,0.0,4.0,96,0.03,,---,0.34,0.00,VWS V14.01,2013-03-03 06:45:00,
2013-03-02 22:50:00,39.1,38.1,30.22,SE,129,0.0,3.0,96,0.03,,---,0.34,0.00,VWS V14.01,2013-03-03 06:50:00,
2013-03-02 22:55:00,39.0,38.0,30.22,East,86,0.0,2.0,96,0.04,,---,0.35,0.00,VWS V14.01,2013-03-03 06:55:00,
2013-03-02 23:00:00,38.9,37.9,30.23,ESE,105,0.0,2.0,96,0.05,,---,0.36,0.00,VWS V14.01,2013-03-03 07:00:00,
2013-03-02 23:05:00,38.9,37.9,30.23,ESE,104,0.0,1.0,96,0.05,,---,0.37,0.00,VWS V14.01,2013-03-03 07:05:00,
2013-03-02 23:10:00,38.9,37.9,30.22,ESE,104,0.0,1.0,96,0.05,,---,0.37,0.00,VWS V14.01,2013-03-03 07:10:00,
2013-03-02 23:15:00,38.8,37.8,30.23,SW,232,3.0,3.0,96,0.06,,---,0.38,0.00,VWS V14.01,2013-03-03 07:15:00,
2013-03-02 23:20:00,38.7,37.7,30.22,East,84,0.0,3.0,96,0.06,,---,0.38,0.00,VWS V14.01,2013-03-03 07:20:00,
2013-03-02 23:25:00,38.5,37.5,30.22,NE,49,0.0,3.0,96,0.07,,---,0.39,0.00,VWS V14.01,2013-03-03 07:25:00,
2013-03-02 23:30:00,38.4,37.4,30.23,SE,126,0.0,2.0,96,0.08,,---,0.40,0.00,VWS V14.01,2013-03-03 07:30:00,
2013-03-02 23:35:00,38.3,37.3,30.22,East,93,0.0,1.0,96,0.07,,---,0.40,0.00,VWS V14.01,2013-03-03 07:35:00,
2013-03-02 23:40:00,38.2,37.2,30.22,South,174,1.0,2.0,96,0.07,,---,0.40,0.00,VWS V14.01,2013-03-03 07:40:00,
2013-03-02 23:45:00,38.0,37.0,30.22,South,172,1.0,3.0,96,0.06,,---,0.40,0.00,VWS V14.01,2013-03-03 07:45:00,
2013-03-02 23:50:00,38.0,37.0,30.22,NNE,31,2.0,2.0,96,0.06,,---,0.40,0.00,VWS V14.01,2013-03-03 07:50:00,
2013-03-02 23:55:00,37.8,36.8,30.23,ENE,69,2.0,3.0,96,0.05,,---,0.40,0.00,VWS V14.01,2013-03-03 07:55:00,